createdAt,value
2018-04-26T05:36:56.267Z,59.66
2018-04-26T05:39:21.937Z,57.27
2018-04-26T05:41:48.100Z,58.31
2018-04-26T05:44:14.110Z,57.47
2018-04-26T05:46:40.120Z,57.65
2018-04-26T05:49:05.730Z,57.03
2018-04-26T05:51:32.061Z,56.50
2018-04-26T05:53:57.690Z,57.04
2018-04-26T05:56:23.281Z,56.70
2018-04-26T05:58:49.134Z,56.60
2018-04-26T06:01:14.715Z,55.71
2018-04-26T06:03:40.421Z,55.94
2018-04-26T06:06:06.467Z,55.83
2018-04-26T06:08:32.401Z,55.42
2018-04-26T06:10:58.172Z,55.65
2018-04-26T06:13:23.819Z,55.32
2018-04-26T06:15:49.489Z,55.45
2018-04-26T06:18:15.667Z,56.30
2018-04-26T06:20:41.248Z,56.27
2018-04-26T06:23:06.827Z,56.77
2018-04-26T06:25:32.630Z,55.22
2018-04-26T06:27:58.194Z,56.55
2018-04-26T06:30:23.867Z,54.88
2018-04-26T06:32:49.880Z,56.04
2018-04-26T06:35:15.555Z,55.60
2018-04-26T06:37:41.186Z,55.41
2018-04-26T06:40:07.066Z,54.76
2018-04-26T06:42:32.742Z,54.64
2018-04-26T06:44:58.318Z,55.04
2018-04-26T06:47:24.096Z,55.25
2018-04-26T06:49:49.716Z,54.27
2018-04-26T06:52:15.607Z,54.34
2018-04-26T06:54:41.380Z,54.89
2018-04-26T06:57:07.014Z,54.07
2018-04-26T06:59:32.596Z,54.50
2018-04-26T07:01:58.349Z,53.29
2018-04-26T07:04:23.957Z,54.60
2018-04-26T07:06:49.588Z,53.66
2018-04-26T07:09:16.381Z,52.74
2018-04-26T07:11:42.023Z,53.65
2018-04-26T07:14:07.632Z,54.11
2018-04-26T07:16:33.668Z,54.16
2018-04-26T07:18:59.298Z,53.31
2018-04-26T07:21:24.857Z,53.85
2018-04-26T07:23:50.629Z,53.30
2018-04-26T07:26:16.239Z,53.27
2018-04-26T07:28:41.810Z,54.75
2018-04-26T07:31:07.701Z,55.10
2018-04-26T07:33:33.261Z,55.40
2018-04-26T07:35:58.826Z,55.25
2018-04-26T07:38:24.609Z,53.91
2018-04-26T07:40:50.494Z,54.75
2018-04-26T07:43:16.126Z,54.90
2018-04-26T07:45:42.216Z,54.33
2018-04-26T07:48:07.811Z,54.49
2018-04-26T07:50:33.422Z,54.68
2018-04-26T07:52:59.329Z,54.58
2018-04-26T07:55:24.969Z,54.73
2018-04-26T07:57:50.665Z,54.33
2018-04-26T08:00:16.512Z,53.28
2018-04-26T08:02:42.107Z,53.41
2018-04-26T08:05:07.778Z,53.71
2018-04-26T08:07:33.782Z,53.82
2018-04-26T08:09:59.340Z,54.69
2018-04-26T08:12:24.921Z,54.40
2018-04-26T08:14:50.602Z,54.13
2018-04-26T08:17:16.287Z,53.75
2018-04-26T08:19:41.941Z,53.06
2018-04-26T08:22:07.976Z,52.84
2018-04-26T08:24:33.722Z,52.79
2018-04-26T08:26:59.339Z,52.19
2018-04-26T08:29:25.027Z,52.85
2018-04-26T08:31:50.805Z,53.41
2018-04-26T08:34:16.553Z,54.76
2018-04-26T08:36:42.173Z,53.73
2018-04-26T08:39:07.948Z,52.93
2018-04-26T08:41:33.502Z,51.54
2018-04-26T08:43:59.076Z,50.69
2018-04-26T08:46:24.798Z,49.05
2018-04-26T08:48:50.376Z,48.77
2018-04-26T08:51:16.011Z,48.10
2018-04-26T08:53:42.057Z,48.61
2018-04-26T08:56:07.658Z,46.97
2018-04-26T08:58:33.543Z,47.59
2018-04-26T09:00:59.222Z,47.60
2018-04-26T09:03:24.834Z,47.84
2018-04-26T09:05:50.401Z,45.96
2018-04-26T09:08:16.151Z,44.91
2018-04-26T09:10:41.794Z,45.01
2018-04-26T09:13:07.418Z,43.58
2018-04-26T09:15:33.316Z,43.12
2018-04-26T09:17:59.106Z,43.37
2018-04-26T09:20:24.718Z,42.67
2018-04-26T09:22:50.797Z,43.10
2018-04-26T09:25:16.397Z,41.87
2018-04-26T09:27:41.963Z,43.52
2018-04-26T09:30:07.748Z,43.14
2018-04-26T09:32:33.303Z,43.51
2018-04-26T09:34:58.857Z,43.25
2018-04-26T09:37:24.669Z,42.87
2018-04-26T09:39:50.363Z,43.70
2018-04-26T09:42:15.977Z,43.49
2018-04-26T09:44:42.053Z,42.67
2018-04-26T09:47:07.639Z,41.84
2018-04-26T09:49:33.252Z,42.04
2018-04-26T09:52:00.426Z,41.27
2018-04-26T09:54:26.256Z,40.01
2018-04-26T09:56:51.830Z,40.74
2018-04-26T09:59:19.237Z,40.76
2018-04-26T10:01:44.923Z,41.39
2018-04-26T10:04:16.335Z,42.55
2018-04-26T10:07:01.919Z,40.09
2018-04-26T10:09:27.638Z,39.83
2018-04-26T10:11:53.269Z,39.55
2018-04-26T10:14:19.030Z,39.35
2018-04-26T10:16:44.602Z,39.43
2018-04-26T10:19:10.257Z,39.83
2018-04-26T10:21:36.046Z,40.33
2018-04-26T10:24:01.802Z,40.94
2018-04-26T10:26:27.436Z,41.07
2018-04-26T10:28:53.004Z,40.68
2018-04-26T10:31:18.760Z,39.72
2018-04-26T10:33:44.549Z,39.05
2018-04-26T10:36:10.095Z,39.20
2018-04-26T10:38:36.016Z,39.43
2018-04-26T10:41:01.960Z,40.05
2018-04-26T10:43:27.709Z,39.00
2018-04-26T10:45:53.283Z,38.29
2018-04-26T10:48:19.185Z,38.35
2018-04-26T10:50:44.741Z,38.25
2018-04-26T10:53:10.413Z,37.92
2018-04-26T10:55:36.313Z,38.13
2018-04-26T10:58:01.927Z,37.72
2018-04-26T11:00:27.730Z,38.12
2018-04-26T11:02:53.616Z,37.81
2018-04-26T11:05:19.233Z,37.51
2018-04-26T11:07:45.006Z,37.44
2018-04-26T11:10:10.653Z,37.73
2018-04-26T11:12:36.276Z,37.04
2018-04-26T11:15:02.211Z,37.12
2018-04-26T11:17:27.787Z,36.17
2018-04-26T11:19:53.604Z,35.50
2018-04-26T11:22:19.319Z,35.59
2018-04-26T11:24:44.889Z,35.03
2018-04-26T11:27:10.446Z,34.29
2018-04-26T11:29:36.295Z,34.80
2018-04-26T11:32:01.905Z,33.05
2018-04-26T11:34:27.558Z,33.56
2018-04-26T11:36:53.352Z,33.49
2018-04-26T11:39:18.909Z,32.62
2018-04-26T11:41:44.570Z,31.62
2018-04-26T11:44:10.609Z,32.80
2018-04-26T11:46:36.229Z,33.69
2018-04-26T11:49:01.871Z,35.24
2018-04-26T11:51:27.685Z,33.19
2018-04-26T11:53:53.283Z,32.44
2018-04-26T11:56:18.902Z,32.94
2018-04-26T11:58:44.588Z,32.73
2018-04-26T12:01:10.146Z,33.61
2018-04-26T12:03:35.756Z,32.77
2018-04-26T12:06:01.636Z,33.66
2018-04-26T12:08:27.214Z,33.10
2018-04-26T12:10:52.898Z,33.68
2018-04-26T12:13:19.005Z,32.62
2018-04-26T12:15:44.724Z,32.68
2018-04-26T12:18:10.321Z,31.53
2018-04-26T12:20:36.115Z,30.59
2018-04-26T12:23:01.677Z,30.76
2018-04-26T12:25:27.272Z,31.44
2018-04-26T12:27:53.120Z,31.19
2018-04-26T12:30:18.712Z,30.43
2018-04-26T12:32:44.286Z,30.27
2018-04-26T12:35:10.229Z,29.86
2018-04-26T12:37:35.731Z,29.93
2018-04-26T12:40:01.292Z,30.49
2018-04-26T12:42:27.344Z,29.22
2018-04-26T12:44:53.176Z,29.55
2018-04-26T12:50:47.945Z,29.25
2018-04-26T12:53:13.537Z,28.04
2018-04-26T12:55:39.117Z,28.36
2018-04-26T12:58:04.976Z,28.42
2018-04-26T13:00:30.472Z,28.23
2018-04-26T13:02:56.030Z,28.46
2018-04-26T13:05:22.148Z,27.72
2018-04-26T13:07:47.771Z,27.55
2018-04-26T13:10:13.671Z,27.36
2018-04-26T13:12:39.516Z,26.99
2018-04-26T13:15:05.123Z,27.48
2018-04-26T13:17:30.753Z,28.16
2018-04-26T13:19:57.613Z,27.96
2018-04-26T13:22:23.177Z,28.97
2018-04-26T13:24:48.810Z,29.29
2018-04-26T13:27:14.646Z,29.04
2018-04-26T13:29:40.275Z,28.85
2018-04-26T13:32:05.836Z,28.94
2018-04-26T13:34:31.896Z,28.26
2018-04-26T13:36:57.520Z,27.64
2018-04-26T13:39:24.641Z,26.97
2018-04-26T13:41:50.392Z,27.45
2018-04-26T13:44:16.298Z,27.12
2018-04-26T13:46:41.856Z,26.56
2018-04-26T13:49:07.774Z,25.74
2018-04-26T13:51:33.403Z,26.13
2018-04-26T13:53:59.024Z,25.63
2018-04-26T13:56:24.742Z,26.19
2018-04-26T13:58:50.373Z,27.31
2018-04-26T14:01:16.152Z,26.24
2018-04-26T14:03:41.713Z,24.78
2018-04-26T14:06:08.166Z,25.81
2018-04-26T14:08:33.779Z,25.24
2018-04-26T14:10:59.342Z,25.34
2018-04-26T14:13:25.179Z,25.04
2018-04-26T14:15:50.802Z,24.27
2018-04-26T14:18:16.362Z,24.26
2018-04-26T14:20:42.159Z,24.86
2018-04-26T14:23:07.932Z,25.57
2018-04-26T14:25:33.383Z,23.97
2018-04-26T14:27:59.533Z,25.25
2018-04-26T14:30:25.147Z,25.24
2018-04-26T14:32:50.751Z,25.00
2018-04-26T14:35:16.535Z,24.25
2018-04-26T14:37:42.205Z,24.93
2018-04-26T14:40:07.698Z,23.99
2018-04-26T14:42:33.493Z,24.15
2018-04-26T14:44:59.065Z,24.64
2018-04-26T14:47:24.729Z,23.54
2018-04-26T14:49:50.516Z,23.71
2018-04-26T14:52:16.368Z,23.41
2018-04-26T14:54:41.949Z,22.49
2018-04-26T14:57:07.684Z,23.70
2018-04-26T14:59:33.287Z,24.58
2018-04-26T15:01:58.916Z,24.40
2018-04-26T15:04:24.641Z,23.91
2018-04-26T15:06:50.255Z,23.45
2018-04-26T15:09:15.828Z,23.67
2018-04-26T15:11:41.634Z,22.74
2018-04-26T15:14:07.262Z,22.94
2018-04-26T15:16:32.973Z,23.92
2018-04-26T15:18:58.781Z,23.96
2018-04-26T15:21:24.517Z,23.21
2018-04-26T15:23:50.081Z,21.92
2018-04-26T15:26:15.704Z,21.33
2018-04-26T15:28:41.733Z,20.65
2018-04-26T15:31:07.302Z,21.34
2018-04-26T15:33:32.918Z,21.70
2018-04-26T15:35:58.635Z,21.51
2018-04-26T15:38:24.353Z,21.60
2018-04-26T15:40:49.990Z,22.30
2018-04-26T15:43:16.026Z,21.44
2018-04-26T15:45:41.586Z,22.16
2018-04-26T15:48:07.119Z,23.00
2018-04-26T15:50:36.021Z,23.32
2018-04-26T15:53:39.358Z,24.09
2018-04-26T15:56:55.475Z,24.32
2018-04-26T15:59:58.829Z,25.03
2018-04-26T16:03:04.648Z,24.05
2018-04-26T16:06:01.500Z,23.08
2018-04-26T16:09:04.908Z,24.63
2018-04-26T16:12:07.604Z,23.96
2018-04-26T16:15:10.723Z,25.68
2018-04-26T16:18:33.280Z,25.94
2018-04-26T16:21:36.486Z,26.21
2018-04-26T16:24:55.664Z,25.76
2018-04-26T16:27:58.782Z,25.40
2018-04-26T16:31:20.716Z,25.53
2018-04-26T16:34:23.942Z,25.58
2018-04-26T16:37:46.230Z,25.69
2018-04-26T16:40:11.798Z,24.37
2018-04-26T16:42:37.455Z,24.58
2018-04-26T16:45:03.494Z,25.03
2018-04-26T16:47:29.067Z,25.44
2018-04-26T16:49:54.763Z,25.86
2018-04-26T16:52:20.507Z,25.65
2018-04-26T16:54:46.071Z,25.67
2018-04-26T16:57:11.713Z,25.83
2018-04-26T16:59:37.489Z,26.54
2018-04-26T17:02:03.076Z,25.89
2018-04-26T17:04:28.848Z,26.18
2018-04-26T17:06:54.732Z,26.41
2018-04-26T17:09:20.352Z,26.29
2018-04-26T17:11:45.961Z,26.70
2018-04-26T17:14:12.377Z,26.70
2018-04-26T17:16:39.014Z,27.21
2018-04-26T17:19:04.665Z,27.05
2018-04-26T17:21:30.847Z,27.24
2018-04-26T17:23:56.425Z,27.77
2018-04-26T17:26:22.238Z,27.79
2018-04-26T17:28:48.137Z,28.01
2018-04-26T17:31:13.781Z,29.39
2018-04-26T17:33:39.623Z,28.65
2018-04-26T17:36:05.243Z,28.96
2018-04-26T17:38:30.884Z,28.97
2018-04-26T17:40:56.552Z,28.95
2018-04-26T17:43:22.232Z,29.48
2018-04-26T17:45:48.232Z,29.41
2018-04-26T17:48:13.787Z,29.48
2018-04-26T17:50:39.731Z,30.22
2018-04-26T17:53:05.371Z,30.30
2018-04-26T17:55:31.283Z,30.36
2018-04-26T17:57:56.894Z,30.51
2018-04-26T18:00:22.906Z,30.14
2018-04-26T18:02:48.526Z,30.89
2018-04-26T18:05:14.882Z,30.79
2018-04-26T18:07:40.490Z,31.13
2018-04-26T18:10:06.151Z,31.29
2018-04-26T18:12:32.154Z,31.72
2018-04-26T18:14:58.256Z,31.46
2018-04-26T18:17:23.865Z,31.92
2018-04-26T18:19:49.505Z,32.13
2018-04-26T18:22:15.540Z,32.61
2018-04-26T18:24:41.555Z,32.19
2018-04-26T18:27:07.238Z,32.50
2018-04-26T18:29:33.067Z,32.76
2018-04-26T18:31:58.632Z,33.25
2018-04-26T18:34:24.161Z,33.93
2018-04-26T18:36:49.939Z,34.18
2018-04-26T18:39:15.793Z,34.27
2018-04-26T18:41:41.726Z,34.54
2018-04-26T18:44:07.426Z,34.94
2018-04-26T18:46:32.990Z,35.69
2018-04-26T18:48:59.009Z,35.90
2018-04-26T18:51:24.947Z,36.53
2018-04-26T18:53:50.555Z,36.80
2018-04-26T18:56:16.090Z,37.34
2018-04-26T18:58:42.260Z,37.68
2018-04-26T19:01:08.033Z,38.04
2018-04-26T19:03:33.743Z,38.14
2018-04-26T19:05:59.303Z,38.63
2018-04-26T19:08:25.383Z,39.02
2018-04-26T19:10:50.942Z,39.37
2018-04-26T19:13:16.563Z,39.45
2018-04-26T19:15:42.462Z,40.15
2018-04-26T19:18:08.271Z,40.53
2018-04-26T19:20:33.854Z,41.01
2018-04-26T19:22:59.694Z,41.14
2018-04-26T19:25:25.525Z,41.45
2018-04-26T19:27:51.167Z,41.82
2018-04-26T19:30:16.654Z,41.38
2018-04-26T19:32:42.681Z,41.04
2018-04-26T19:35:08.467Z,41.82
2018-04-26T19:37:34.128Z,42.23
2018-04-26T19:39:59.906Z,42.33
2018-04-26T19:42:25.583Z,42.48
2018-04-26T19:44:51.136Z,42.10
2018-04-26T19:47:16.951Z,42.27
2018-04-26T19:49:42.576Z,42.54
2018-04-26T19:52:08.250Z,42.96
2018-04-26T19:54:34.230Z,43.18
2018-04-26T19:56:59.868Z,43.27
2018-04-26T19:59:25.634Z,43.29
2018-04-26T20:01:51.359Z,43.34
2018-04-26T20:04:17.186Z,43.49
2018-04-26T20:06:42.817Z,43.99
2018-04-26T20:09:09.018Z,44.37
2018-04-26T20:11:34.585Z,44.72
2018-04-26T20:14:02.087Z,44.59
2018-04-26T20:16:28.332Z,44.99
2018-04-26T20:18:55.823Z,44.48
2018-04-26T20:21:21.658Z,44.88
2018-04-26T20:23:47.415Z,45.67
2018-04-26T20:26:13.021Z,46.38
2018-04-26T20:28:38.933Z,45.97
2018-04-26T20:31:05.157Z,45.91
2018-04-26T20:33:30.787Z,45.59
2018-04-26T20:35:56.696Z,45.28
2018-04-26T20:38:22.325Z,44.92
2018-04-26T20:40:47.960Z,44.89
2018-04-26T20:43:13.736Z,45.26
2018-04-26T20:45:39.549Z,45.98
2018-04-26T20:48:05.185Z,46.33
2018-04-26T20:50:30.764Z,46.52
2018-04-26T20:52:56.670Z,46.62
2018-04-26T20:55:22.233Z,46.69
2018-04-26T20:57:48.348Z,46.91
2018-04-26T21:00:14.492Z,46.76
2018-04-26T21:02:40.254Z,46.29
2018-04-26T21:05:05.853Z,46.42
2018-04-26T21:07:31.539Z,46.10
2018-04-26T21:09:58.455Z,46.37
2018-04-26T21:12:24.115Z,46.49
2018-04-26T21:14:49.730Z,46.58
2018-04-26T21:17:15.583Z,46.39
2018-04-26T21:19:41.172Z,46.83
2018-04-26T21:22:06.876Z,47.17
2018-04-26T21:24:32.732Z,47.48
2018-04-26T21:26:58.596Z,47.49
2018-04-26T21:29:24.483Z,48.13
2018-04-26T21:31:50.210Z,48.78
2018-04-26T21:34:15.932Z,49.06
2018-04-26T21:36:41.866Z,48.61
2018-04-26T21:39:07.824Z,48.37
2018-04-26T21:41:33.425Z,48.99
2018-04-26T21:43:59.062Z,49.34
2018-04-26T21:46:24.833Z,49.57
2018-04-26T21:48:50.442Z,49.78
2018-04-26T21:51:34.964Z,50.10
2018-04-26T21:54:19.660Z,49.97
2018-04-26T21:57:04.081Z,50.74
2018-04-26T21:59:48.627Z,51.20
2018-04-26T22:02:23.770Z,51.43
2018-04-26T22:05:04.746Z,51.37
2018-04-26T22:07:30.578Z,51.31
2018-04-26T22:09:56.240Z,50.74
2018-04-26T22:12:21.821Z,50.20
2018-04-26T22:14:47.618Z,50.10
2018-04-26T22:17:13.279Z,50.10
2018-04-26T22:19:38.868Z,50.16
